createdAt,value
2022-12-25T00:01:12.955Z,100996.76
2022-12-25T00:03:51.757Z,100996.81
2022-12-25T00:06:20.503Z,100996.61
2022-12-25T00:08:48.517Z,100999.98
2022-12-25T00:11:19.951Z,101005.60
2022-12-25T00:13:49.289Z,101005.90
2022-12-25T00:16:24.168Z,101011.00
2022-12-25T00:18:54.114Z,101022.77
2022-12-25T00:21:22.798Z,101023.53
2022-12-25T00:23:56.705Z,101021.83
2022-12-25T00:26:27.270Z,101024.90
2022-12-25T00:28:57.619Z,101017.95
2022-12-25T00:31:26.604Z,101015.65
2022-12-25T00:33:54.821Z,101016.80
2022-12-25T00:36:23.855Z,101008.69
2022-12-25T00:38:52.424Z,101012.34
2022-12-25T00:41:42.355Z,101014.98
2022-12-25T00:44:14.161Z,101017.62
2022-12-25T00:46:44.524Z,101020.27
2022-12-25T00:49:13.928Z,101021.63
2022-12-25T00:51:41.894Z,101018.13
2022-12-25T00:54:10.194Z,101020.31
2022-12-25T00:56:40.503Z,101015.87
2022-12-25T00:59:08.656Z,101017.60
2022-12-25T01:01:39.187Z,101022.71
2022-12-25T01:04:08.955Z,101021.79
2022-12-25T01:06:37.131Z,101019.34
2022-12-25T01:09:23.952Z,101014.80
2022-12-25T01:11:52.119Z,101020.29
2022-12-25T01:14:20.215Z,101023.96
2022-12-25T01:16:48.249Z,101029.48
2022-12-25T01:19:16.407Z,101046.21
2022-12-25T01:21:44.375Z,101051.03
2022-12-25T01:24:12.886Z,101056.67
2022-12-25T01:26:40.977Z,101057.27
2022-12-25T01:29:08.872Z,101061.73
2022-12-25T01:31:36.947Z,101064.14
2022-12-25T01:34:05.458Z,101057.73
2022-12-25T01:36:33.487Z,101052.02
2022-12-25T01:39:01.584Z,101043.13
2022-12-25T01:41:30.259Z,101053.35
2022-12-25T01:44:01.229Z,101058.74
2022-12-25T01:46:31.299Z,101062.84
2022-12-25T01:49:06.010Z,101066.92
2022-12-25T01:52:01.841Z,101059.17
2022-12-25T01:54:35.552Z,101059.06
2022-12-25T01:57:09.848Z,101060.08
2022-12-25T01:59:37.954Z,101055.70
2022-12-25T02:02:06.251Z,101055.61
2022-12-25T02:04:41.835Z,101057.59
2022-12-25T02:07:23.406Z,101054.66
2022-12-25T02:09:52.812Z,101060.61
2022-12-25T02:12:27.107Z,101067.83
2022-12-25T02:15:05.016Z,101074.91
2022-12-25T02:17:40.367Z,101072.89
2022-12-25T02:20:26.848Z,101075.86
2022-12-25T02:23:13.078Z,101076.59
2022-12-25T02:26:02.713Z,101081.23
2022-12-25T02:28:45.374Z,101079.02
2022-12-25T02:31:19.734Z,101077.52
2022-12-25T02:34:20.049Z,101077.38
2022-12-25T02:36:56.247Z,101073.30
2022-12-25T02:39:57.166Z,101073.27
2022-12-25T02:42:53.141Z,101074.02
2022-12-25T02:45:50.103Z,101072.31
2022-12-25T02:48:41.150Z,101072.92
2022-12-25T02:51:34.268Z,101078.21
2022-12-25T02:54:27.191Z,101079.02
2022-12-25T02:57:17.524Z,101082.33
2022-12-25T03:00:07.401Z,101078.00
2022-12-25T03:02:56.150Z,101076.17
2022-12-25T03:05:45.937Z,101079.28
2022-12-25T03:08:20.233Z,101079.64
2022-12-25T03:11:17.484Z,101076.50
2022-12-25T03:13:50.137Z,101075.77
2022-12-25T03:16:39.285Z,101083.89
2022-12-25T03:19:27.684Z,101085.91
2022-12-25T03:22:16.253Z,101090.21
2022-12-25T03:25:02.928Z,101097.91
2022-12-25T03:27:35.544Z,101097.79
2022-12-25T03:30:23.077Z,101098.58
2022-12-25T03:33:43.319Z,101096.05
2022-12-25T03:36:05.493Z,101100.39
2022-12-25T03:38:51.802Z,101098.23
2022-12-25T03:42:06.633Z,101107.77
2022-12-25T03:45:22.661Z,101108.08
2022-12-25T03:48:13.979Z,101105.79
2022-12-25T03:51:11.098Z,101108.48
2022-12-25T03:54:07.496Z,101112.04
2022-12-25T03:56:58.472Z,101112.77
2022-12-25T03:59:45.946Z,101111.83
2022-12-25T04:02:32.817Z,101106.79
2022-12-25T04:05:20.639Z,101109.11
2022-12-25T04:08:07.520Z,101108.05
2022-12-25T04:10:54.192Z,101111.11
2022-12-25T04:13:40.952Z,101111.41
2022-12-25T04:16:47.396Z,101113.53
2022-12-25T04:19:34.585Z,101113.30
2022-12-25T04:22:21.318Z,101122.19
2022-12-25T04:25:08.308Z,101127.48
2022-12-25T04:27:55.173Z,101130.10
2022-12-25T04:30:42.011Z,101130.40
2022-12-25T04:33:28.520Z,101134.98
2022-12-25T04:36:14.890Z,101141.48
2022-12-25T04:38:43.458Z,101137.65
2022-12-25T04:41:13.638Z,101140.13
2022-12-25T04:43:41.777Z,101140.10
2022-12-25T04:46:09.684Z,101142.30
2022-12-25T04:48:37.840Z,101139.30
2022-12-25T04:51:18.688Z,101144.55
2022-12-25T04:53:48.605Z,101147.86
2022-12-25T04:56:17.287Z,101147.73
2022-12-25T04:58:46.135Z,101155.02
2022-12-25T05:01:15.145Z,101162.15
2022-12-25T05:03:47.556Z,101165.30
2022-12-25T05:06:16.008Z,101161.77
2022-12-25T05:08:44.597Z,101159.10
2022-12-25T05:11:16.290Z,101163.80
2022-12-25T05:13:45.028Z,101160.77
2022-12-25T05:16:18.076Z,101164.67
2022-12-25T05:18:50.319Z,101169.17
2022-12-25T05:21:18.989Z,101168.54
2022-12-25T05:23:51.334Z,101174.40
2022-12-25T05:26:24.474Z,101176.75
2022-12-25T05:28:52.832Z,101174.70
2022-12-25T05:31:21.593Z,101181.72
2022-12-25T05:33:51.915Z,101183.80
2022-12-25T05:36:19.997Z,101190.85
2022-12-25T05:38:48.035Z,101201.99
2022-12-25T05:41:16.741Z,101212.63
2022-12-25T05:43:44.804Z,101217.30
2022-12-25T05:46:14.811Z,101224.20
2022-12-25T05:48:42.723Z,101228.36
2022-12-25T05:51:14.015Z,101233.47
2022-12-25T05:53:43.759Z,101236.20
2022-12-25T05:56:11.844Z,101237.48
2022-12-25T05:58:40.842Z,101235.45
2022-12-25T06:01:24.802Z,101236.13
2022-12-25T06:03:53.113Z,101243.23
2022-12-25T06:06:21.146Z,101245.61
2022-12-25T06:08:49.155Z,101256.08
2022-12-25T06:11:17.269Z,101258.61
2022-12-25T06:13:51.643Z,101255.29
2022-12-25T06:16:20.382Z,101255.57
2022-12-25T06:18:52.311Z,101262.81
2022-12-25T06:21:20.490Z,101264.86
2022-12-25T06:23:49.106Z,101267.26
2022-12-25T06:26:19.960Z,101269.79
2022-12-25T06:28:48.832Z,101275.95
2022-12-25T06:31:20.442Z,101278.39
2022-12-25T06:33:49.505Z,101275.85
2022-12-25T06:36:20.829Z,101275.14
2022-12-25T06:38:48.972Z,101277.52
2022-12-25T06:41:22.827Z,101285.49
2022-12-25T06:43:53.504Z,101288.41
2022-12-25T06:46:23.965Z,101289.10
2022-12-25T06:48:53.270Z,101290.36
2022-12-25T06:51:27.931Z,101294.32
2022-12-25T06:53:56.729Z,101290.34
2022-12-25T06:56:27.492Z,101292.71
2022-12-25T06:59:01.737Z,101292.70
2022-12-25T07:02:06.221Z,101289.71
2022-12-25T07:04:41.189Z,101297.70
2022-12-25T07:07:10.144Z,101297.80
2022-12-25T07:09:39.499Z,101293.77
2022-12-25T07:12:15.423Z,101294.34
2022-12-25T07:14:45.725Z,101300.36
2022-12-25T07:17:13.697Z,101302.54
2022-12-25T07:19:45.159Z,101301.84
2022-12-25T07:22:15.766Z,101300.26
2022-12-25T07:24:44.229Z,101301.64
2022-12-25T07:27:12.159Z,101293.16
2022-12-25T07:29:40.204Z,101296.77
2022-12-25T07:32:08.962Z,101296.09
2022-12-25T07:34:37.446Z,101294.07
2022-12-25T07:37:05.408Z,101299.41
2022-12-25T07:39:35.568Z,101299.78
2022-12-25T07:42:04.567Z,101300.33
2022-12-25T07:44:32.642Z,101300.51
2022-12-25T07:47:00.758Z,101296.56
2022-12-25T07:49:28.796Z,101290.98
2022-12-25T07:51:57.517Z,101300.52
2022-12-25T07:54:25.489Z,101303.33
2022-12-25T07:56:53.560Z,101302.70
2022-12-25T07:59:21.749Z,101306.68
2022-12-25T08:01:50.997Z,101312.75
2022-12-25T08:04:19.592Z,101314.12
2022-12-25T08:06:47.764Z,101318.23
2022-12-25T08:09:15.755Z,101313.98
2022-12-25T08:11:47.605Z,101317.77
2022-12-25T08:14:15.837Z,101315.08
2022-12-25T08:16:45.035Z,101317.95
2022-12-25T08:19:14.988Z,101321.68
2022-12-25T08:21:43.540Z,101325.33
2022-12-25T08:24:12.187Z,101327.34
2022-12-25T08:26:40.225Z,101334.10
2022-12-25T08:29:08.186Z,101334.29
2022-12-25T08:31:40.845Z,101337.92
2022-12-25T08:34:11.611Z,101343.09
2022-12-25T08:36:39.871Z,101342.52
2022-12-25T08:39:09.075Z,101346.90
2022-12-25T08:41:37.170Z,101349.60
2022-12-25T08:44:06.743Z,101356.70
2022-12-25T08:46:34.972Z,101364.25
2022-12-25T08:49:02.955Z,101367.39
2022-12-25T08:51:31.147Z,101365.34
2022-12-25T08:54:01.100Z,101362.78
2022-12-25T08:56:29.261Z,101364.45
2022-12-25T08:58:57.318Z,101358.65
2022-12-25T09:01:25.464Z,101358.03
2022-12-25T09:03:53.465Z,101357.18
2022-12-25T09:06:21.355Z,101353.80
2022-12-25T09:08:50.046Z,101351.12
2022-12-25T09:11:21.039Z,101352.99
2022-12-25T09:13:50.609Z,101356.15
2022-12-25T09:16:22.283Z,101361.45
2022-12-25T09:18:51.294Z,101362.63
2022-12-25T09:21:19.452Z,101361.19
2022-12-25T09:23:47.698Z,101361.20
2022-12-25T09:26:17.902Z,101365.95
2022-12-25T09:28:51.947Z,101370.09
2022-12-25T09:31:23.022Z,101373.30
2022-12-25T09:33:52.111Z,101374.11
2022-12-25T09:36:23.764Z,101376.12
2022-12-25T09:38:53.180Z,101374.41
2022-12-25T09:41:28.651Z,101378.41
2022-12-25T09:44:04.591Z,101379.69
2022-12-25T09:46:37.631Z,101382.91
2022-12-25T09:49:46.739Z,101383.93
2022-12-25T09:52:20.336Z,101379.58
2022-12-25T09:55:08.805Z,101380.74
2022-12-25T09:57:36.894Z,101384.16
2022-12-25T10:00:18.304Z,101381.77
2022-12-25T10:03:01.926Z,101382.21
2022-12-25T10:06:04.798Z,101370.80
2022-12-25T10:08:41.589Z,101366.58
2022-12-25T10:11:51.816Z,101362.45
2022-12-25T10:14:35.758Z,101357.16
2022-12-25T10:17:12.581Z,101351.02
2022-12-25T10:19:55.953Z,101352.13
2022-12-25T10:22:34.887Z,101343.85
2022-12-25T10:25:07.368Z,101341.70
2022-12-25T10:27:40.089Z,101333.31
2022-12-25T10:30:24.054Z,101337.63
2022-12-25T10:32:54.884Z,101332.04
2022-12-25T10:35:26.606Z,101329.48
2022-12-25T10:38:13.187Z,101328.60
2022-12-25T10:41:25.326Z,101334.65
2022-12-25T10:43:56.398Z,101328.30
2022-12-25T10:46:28.689Z,101327.37
2022-12-25T10:49:00.776Z,101327.36
2022-12-25T10:51:36.201Z,101317.41
2022-12-25T10:54:26.585Z,101316.02
2022-12-25T10:57:29.272Z,101316.98
2022-12-25T10:59:57.975Z,101325.04
2022-12-25T11:02:34.896Z,101328.15
2022-12-25T11:05:21.678Z,101330.50
2022-12-25T11:07:56.525Z,101330.81
2022-12-25T11:10:52.225Z,101330.13
2022-12-25T11:13:30.928Z,101329.48
2022-12-25T11:16:15.319Z,101328.45
2022-12-25T11:18:52.688Z,101332.04
2022-12-25T11:21:37.467Z,101334.17
2022-12-25T11:24:18.126Z,101330.34
2022-12-25T11:26:49.516Z,101331.76
2022-12-25T11:29:46.975Z,101332.88
2022-12-25T11:32:30.795Z,101339.79
2022-12-25T11:35:22.025Z,101339.20
2022-12-25T11:37:52.251Z,101342.30
2022-12-25T11:40:34.006Z,101343.86
2022-12-25T11:43:21.058Z,101344.02
2022-12-25T11:45:55.272Z,101345.29
2022-12-25T11:48:32.052Z,101344.16
2022-12-25T11:51:03.959Z,101341.79
2022-12-25T11:54:00.342Z,101335.36
2022-12-25T11:56:31.239Z,101330.86
2022-12-25T11:59:18.087Z,101326.10
2022-12-25T12:01:52.893Z,101322.86
2022-12-25T12:04:30.931Z,101317.70
2022-12-25T12:07:24.250Z,101314.69
2022-12-25T12:10:10.769Z,101316.55
2022-12-25T12:12:57.250Z,101312.55
2022-12-25T12:15:51.688Z,101306.80
2022-12-25T12:18:28.072Z,101306.91
2022-12-25T12:21:03.915Z,101304.49
2022-12-25T12:23:56.612Z,101306.50
2022-12-25T12:26:30.769Z,101309.73
2022-12-25T12:29:02.088Z,101307.64
2022-12-25T12:31:49.260Z,101307.46
2022-12-25T12:34:42.919Z,101306.27
2022-12-25T12:37:24.627Z,101301.86
2022-12-25T12:39:56.153Z,101298.05
2022-12-25T12:42:32.106Z,101301.20
2022-12-25T12:45:08.377Z,101302.67
2022-12-25T12:47:44.859Z,101297.13
2022-12-25T12:50:41.363Z,101295.66
2022-12-25T12:53:21.804Z,101301.81
2022-12-25T12:55:53.299Z,101300.06
2022-12-25T12:58:34.106Z,101299.05
2022-12-25T13:01:31.111Z,101285.73
2022-12-25T13:04:21.715Z,101272.33
2022-12-25T13:06:59.623Z,101269.50
2022-12-25T13:09:55.426Z,101272.53
2022-12-25T13:12:24.191Z,101281.27
2022-12-25T13:14:53.118Z,101282.14
2022-12-25T13:17:25.089Z,101287.83
2022-12-25T13:19:58.470Z,101280.58
2022-12-25T13:22:30.954Z,101280.52
2022-12-25T13:25:05.741Z,101287.59
2022-12-25T13:27:34.085Z,101269.50
2022-12-25T13:30:19.428Z,101269.69
2022-12-25T13:32:47.417Z,101281.36
2022-12-25T13:35:17.700Z,101269.63
2022-12-25T13:37:46.350Z,101264.93
2022-12-25T13:40:25.177Z,101264.17
2022-12-25T13:43:02.112Z,101259.23
2022-12-25T13:45:34.015Z,101256.84
2022-12-25T13:48:16.418Z,101262.41
2022-12-25T13:50:48.898Z,101264.32
2022-12-25T13:53:18.618Z,101257.56
2022-12-25T13:55:54.841Z,101249.98
2022-12-25T13:58:30.099Z,101251.98
2022-12-25T14:01:00.929Z,101249.38
2022-12-25T14:03:49.355Z,101250.59
2022-12-25T14:06:25.704Z,101252.17
2022-12-25T14:08:56.998Z,101248.52
2022-12-25T14:11:31.176Z,101251.84
2022-12-25T14:14:10.046Z,101249.23
2022-12-25T14:16:38.157Z,101251.98
2022-12-25T14:19:27.997Z,101246.88
2022-12-25T14:22:02.360Z,101250.23
2022-12-25T14:24:34.161Z,101247.56
2022-12-25T14:27:07.861Z,101251.77
2022-12-25T14:29:46.640Z,101249.77
2022-12-25T14:32:19.585Z,101254.39
2022-12-25T14:34:54.338Z,101265.73
2022-12-25T14:37:26.773Z,101271.48
2022-12-25T14:40:22.499Z,101267.91
2022-12-25T14:43:03.419Z,101266.43
2022-12-25T14:45:34.593Z,101272.81
2022-12-25T14:48:28.483Z,101278.75
2022-12-25T14:51:10.133Z,101277.86
2022-12-25T14:53:52.453Z,101272.38
2022-12-25T14:56:24.212Z,101266.34
2022-12-25T14:58:57.021Z,101257.20
2022-12-25T15:01:35.719Z,101249.49
2022-12-25T15:04:24.881Z,101246.77
2022-12-25T15:06:55.293Z,101238.96
2022-12-25T15:09:26.605Z,101231.85
2022-12-25T15:11:57.558Z,101237.30
2022-12-25T15:14:28.060Z,101223.35
2022-12-25T15:17:02.396Z,101217.48
2022-12-25T15:19:38.180Z,101215.30
2022-12-25T15:22:14.738Z,101211.80
2022-12-25T15:24:42.626Z,101210.67
2022-12-25T15:27:18.853Z,101208.50
2022-12-25T15:32:35.041Z,101235.67
2022-12-25T15:35:03.119Z,101245.95
2022-12-25T15:37:31.075Z,101244.09
2022-12-25T15:39:59.615Z,101243.23
2022-12-25T15:42:29.526Z,101241.13
2022-12-25T15:44:58.398Z,101234.75
2022-12-25T15:47:26.678Z,101241.51
2022-12-25T15:49:54.640Z,101242.02
2022-12-25T15:52:22.529Z,101249.73
2022-12-25T15:54:50.566Z,101251.15
2022-12-25T15:57:22.823Z,101234.17
2022-12-25T15:59:52.942Z,101225.30
2022-12-25T16:02:21.568Z,101212.96
2022-12-25T16:04:51.439Z,101211.31
2022-12-25T16:07:25.916Z,101203.75
2022-12-25T16:09:53.963Z,101199.85
2022-12-25T16:12:21.958Z,101191.58
2022-12-25T16:14:50.143Z,101193.86
2022-12-25T16:17:18.158Z,101205.27
2022-12-25T16:19:46.212Z,101209.23
2022-12-25T16:22:23.077Z,101211.32
2022-12-25T16:24:53.825Z,101216.48
2022-12-25T16:27:24.051Z,101216.98
2022-12-25T16:29:52.427Z,101215.23
2022-12-25T16:32:20.821Z,101206.09
2022-12-25T16:34:50.962Z,101195.91
2022-12-25T16:37:19.152Z,101197.73
2022-12-25T16:39:47.206Z,101194.04
2022-12-25T16:42:15.525Z,101185.86
2022-12-25T16:44:43.600Z,101189.35
2022-12-25T16:47:11.632Z,101193.09
2022-12-25T16:49:39.734Z,101187.83
2022-12-25T16:52:07.810Z,101178.82
2022-12-25T16:54:38.309Z,101177.70
2022-12-25T16:57:06.266Z,101182.61
2022-12-25T16:59:37.116Z,101188.59
2022-12-25T17:02:05.273Z,101177.57
2022-12-25T17:04:33.446Z,101171.13
2022-12-25T17:07:01.513Z,101170.84
2022-12-25T17:09:31.150Z,101152.27
2022-12-25T17:12:00.988Z,101142.98
2022-12-25T17:14:29.191Z,101141.05
2022-12-25T17:16:57.268Z,101151.40
2022-12-25T17:19:25.513Z,101141.80
2022-12-25T17:21:57.408Z,101134.71
2022-12-25T17:24:28.887Z,101146.98
2022-12-25T17:26:56.904Z,101133.92
2022-12-25T17:29:25.215Z,101133.31
2022-12-25T17:31:53.458Z,101126.09
2022-12-25T17:34:29.936Z,101108.02
2022-12-25T17:36:57.844Z,101114.61
2022-12-25T17:39:28.596Z,101116.71
2022-12-25T17:41:58.068Z,101130.35
2022-12-25T17:44:26.416Z,101124.52
2022-12-25T17:46:54.695Z,101114.83
2022-12-25T17:49:25.360Z,101107.20
2022-12-25T17:51:56.329Z,101101.58
2022-12-25T17:54:24.493Z,101101.82
2022-12-25T17:56:52.614Z,101096.31
2022-12-25T17:59:23.926Z,101103.52
2022-12-25T18:02:49.330Z,101103.48
2022-12-25T18:05:17.731Z,101089.60
2022-12-25T18:07:45.710Z,101092.93
2022-12-25T18:10:14.956Z,101092.19
2022-12-25T18:12:44.580Z,101078.89
2022-12-25T18:15:12.611Z,101074.89
2022-12-25T18:17:40.741Z,101069.73
2022-12-25T18:20:09.097Z,101064.59
2022-12-25T18:22:37.141Z,101060.13
2022-12-25T18:25:11.068Z,101053.98
2022-12-25T18:27:39.256Z,101049.27
2022-12-25T18:30:07.818Z,101041.95
2022-12-25T18:32:35.880Z,101039.06
2022-12-25T18:35:04.292Z,101031.11
2022-12-25T18:37:39.400Z,101028.41
2022-12-25T18:40:10.607Z,101033.09
2022-12-25T18:42:45.312Z,101033.86
2022-12-25T18:45:17.943Z,101023.72
2022-12-25T18:47:46.826Z,101018.86
2022-12-25T18:50:17.442Z,101017.51
2022-12-25T18:52:51.612Z,101016.17
2022-12-25T18:55:22.259Z,101012.16
2022-12-25T18:57:52.191Z,101016.30
2022-12-25T19:00:27.521Z,101006.77
2022-12-25T19:02:58.952Z,101000.61
2022-12-25T19:05:29.885Z,100994.85
2022-12-25T19:07:57.960Z,100993.70
2022-12-25T19:10:26.068Z,100989.89
2022-12-25T19:12:54.110Z,100976.98
2022-12-25T19:15:22.108Z,100973.47
2022-12-25T19:17:50.241Z,100970.44
2022-12-25T19:20:18.329Z,100957.36
2022-12-25T19:22:46.344Z,100944.11
2022-12-25T19:25:15.643Z,100939.34
2022-12-25T19:27:43.604Z,100943.11
2022-12-25T19:30:12.074Z,100946.50
2022-12-25T19:32:40.272Z,100949.35
2022-12-25T19:35:08.445Z,100949.35
2022-12-25T19:37:36.637Z,100953.09
2022-12-25T19:40:05.032Z,100945.90
2022-12-25T19:42:33.103Z,100929.23
2022-12-25T19:45:01.056Z,100921.09
2022-12-25T19:47:29.228Z,100912.92
2022-12-25T19:50:03.446Z,100906.02
2022-12-25T19:52:31.760Z,100900.80
2022-12-25T19:54:59.684Z,100900.97
2022-12-25T19:57:27.828Z,100897.02
2022-12-25T19:59:55.838Z,100894.87
2022-12-25T20:02:24.019Z,100898.66
2022-12-25T20:04:52.209Z,100897.73
2022-12-25T20:07:20.096Z,100887.02
2022-12-25T20:09:48.035Z,100883.74
2022-12-25T20:12:18.720Z,100880.90
2022-12-25T20:14:46.873Z,100876.41
2022-12-25T20:17:16.207Z,100872.29
2022-12-25T20:19:47.933Z,100872.48
2022-12-25T20:22:15.944Z,100869.07
2022-12-25T20:24:44.184Z,100864.92
2022-12-25T20:27:12.149Z,100857.55
2022-12-25T20:29:42.931Z,100853.45
2022-12-25T20:32:11.100Z,100843.70
2022-12-25T20:34:41.729Z,100841.60
2022-12-25T20:37:09.873Z,100841.23
2022-12-25T20:39:40.774Z,100834.67
2022-12-25T20:42:08.787Z,100831.23
2022-12-25T20:44:36.925Z,100830.29
2022-12-25T20:47:05.218Z,100830.51
2022-12-25T20:49:36.197Z,100835.41
2022-12-25T20:52:07.422Z,100840.67
2022-12-25T20:54:35.594Z,100846.61
2022-12-25T20:57:03.660Z,100848.30
2022-12-25T20:59:37.375Z,100848.77
2022-12-25T21:02:35.217Z,100851.23
2022-12-25T21:05:02.323Z,100843.32
2022-12-25T21:07:30.426Z,100841.45
2022-12-25T21:10:00.408Z,100835.30
2022-12-25T21:12:28.439Z,100833.78
2022-12-25T21:14:56.482Z,100838.91
2022-12-25T21:17:24.608Z,100839.33
2022-12-25T21:19:52.653Z,100839.15
2022-12-25T21:22:20.654Z,100831.05
2022-12-25T21:24:54.388Z,100828.20
2022-12-25T21:27:31.405Z,100826.96
2022-12-25T21:29:59.552Z,100821.34
2022-12-25T21:33:02.690Z,100817.92
2022-12-25T21:35:38.231Z,100810.16
2022-12-25T21:38:06.567Z,100816.36
2022-12-25T21:40:38.292Z,100813.16
2022-12-25T21:43:10.784Z,100814.52
2022-12-25T21:45:38.856Z,100809.02
2022-12-25T21:48:06.896Z,100806.52
2022-12-25T21:50:53.884Z,100799.34
2022-12-25T21:53:21.989Z,100795.77
2022-12-25T21:56:04.620Z,100799.73
2022-12-25T21:58:32.631Z,100800.67
2022-12-25T22:01:06.835Z,100795.71
2022-12-25T22:03:35.172Z,100784.48
2022-12-25T22:06:22.257Z,100775.10
2022-12-25T22:08:50.405Z,100760.91
2022-12-25T22:11:37.289Z,100750.39
2022-12-25T22:14:52.715Z,100734.89
2022-12-25T22:17:31.197Z,100725.54
2022-12-25T22:20:02.157Z,100713.25
2022-12-25T22:22:33.768Z,100710.16
2022-12-25T22:25:05.626Z,100711.28
2022-12-25T22:27:38.063Z,100712.41
2022-12-25T22:30:30.850Z,100710.34
2022-12-25T22:32:58.821Z,100699.35
2022-12-25T22:35:27.013Z,100694.46
2022-12-25T22:37:55.163Z,100686.48
2022-12-25T22:40:23.072Z,100685.37
2022-12-25T22:42:56.109Z,100687.38
2022-12-25T22:45:26.679Z,100694.88
2022-12-25T22:47:54.749Z,100692.35
2022-12-25T22:50:26.356Z,100696.38
2022-12-25T22:52:54.230Z,100693.60
2022-12-25T22:55:22.303Z,100695.86
2022-12-25T22:57:50.470Z,100688.92
2022-12-25T23:00:18.567Z,100686.05
2022-12-25T23:02:46.920Z,100689.11
2022-12-25T23:05:18.043Z,100683.23
2022-12-25T23:07:46.253Z,100678.52
2022-12-25T23:10:14.267Z,100681.36
2022-12-25T23:13:05.209Z,100677.16
2022-12-25T23:15:35.873Z,100668.83
2022-12-25T23:18:23.572Z,100666.45
2022-12-25T23:21:10.493Z,100662.30
2022-12-25T23:23:57.398Z,100661.50
2022-12-25T23:26:25.283Z,100656.79
2022-12-25T23:29:12.393Z,100650.84
2022-12-25T23:31:43.783Z,100654.54
2022-12-25T23:34:11.813Z,100650.91
2022-12-25T23:36:39.982Z,100655.80
2022-12-25T23:39:10.440Z,100653.58
2022-12-25T23:41:43.941Z,100626.76
2022-12-25T23:44:14.982Z,100624.20
2022-12-25T23:46:52.174Z,100622.48
2022-12-25T23:49:27.166Z,100603.95
2022-12-25T23:51:57.913Z,100608.44
2022-12-25T23:54:29.740Z,100613.77
2022-12-25T23:57:00.987Z,100625.35
2022-12-25T23:59:31.781Z,100623.35
